EDT,Max TemperatureF,Mean TemperatureF,Min TemperatureF,Max Dew PointF,MeanDew PointF,Min DewpointF,Max Humidity, Mean Humidity, Min Humidity, Max Sea Level PressureIn, Mean Sea Level PressureIn, Min Sea Level PressureIn, Max VisibilityMiles, Mean VisibilityMiles, Min VisibilityMiles, Max Wind SpeedMPH, Mean Wind SpeedMPH, Max Gust SpeedMPH,PrecipitationIn, CloudCover, Events, WindDirDegrees
2013-7-1,80,71,64,69,66,62,100,87,66,29.94,29.88,29.82,10,9,2,20,4,24,0.64,5,Rain-Thunderstorm,42
2013-7-2,81,72,64,68,66,64,100,87,58,30.02,29.96,29.91,10,7,1,8,3,,0.00,5,Rain,59
2013-7-3,81,74,68,71,68,67,100,83,66,30.13,30.08,30.03,10,10,7,9,2,,0.00,4,,183
2013-7-4,72,70,68,72,69,66,100,96,84,30.18,30.13,30.09,10,7,2,6,3,,1.54,7,Rain-Thunderstorm,180
2013-7-5,77,72,66,71,68,66,100,93,79,30.16,30.13,30.10,10,10,5,12,4,,0.10,6,Rain,170
2013-7-6,80,73,66,73,69,66,100,96,84,30.14,30.11,30.06,10,6,1,13,2,20,1.89,7,Rain,195
2013-7-7,82,73,64,68,67,64,100,86,56,30.14,30.10,30.04,10,10,7,9,2,,0.01,5,,200
2013-7-8,87,76,64,72,67,64,100,90,55,30.14,30.11,30.05,10,4,0,10,1,,0.00,1,Fog-Rain,211
2013-7-9,90,81,73,78,73,71,97,82,59,30.09,30.04,30.00,10,9,5,14,4,,0.00,4,Rain-Thunderstorm,222
2013-7-10,91,80,69,76,73,68,100,87,63,30.00,29.93,29.85,10,9,5,17,4,31,0.07,3,Rain-Thunderstorm,218
2013-7-11,82,74,64,69,65,59,100,83,56,30.03,29.97,29.94,10,8,2,14,2,16,0.00,4,,37
2013-7-12,80,68,57,62,59,55,100,71,45,30.10,30.06,30.04,10,10,7,15,4,22,0.00,1,,49
2013-7-13,84,72,63,67,64,60,97,74,56,30.14,30.10,30.06,10,10,10,12,4,20,0.00,2,Rain,65
2013-7-14,91,77,64,75,70,65,100,80,55,30.23,30.17,30.13,10,9,2,17,3,25,0.10,2,Rain,142
2013-7-15,91,80,69,75,71,66,100,84,46,30.31,30.27,30.23,10,7,1,6,1,,0.00,2,Fog,130
2013-7-16,93,80,69,76,71,67,100,83,45,30.34,30.30,30.25,10,7,2,7,0,,0.00,1,,240
2013-7-17,93,81,71,78,74,71,100,89,54,30.32,30.26,30.19,10,5,1,20,1,16,0.61,3,Rain-Thunderstorm,146
2013-7-18,93,83,73,76,73,67,100,87,42,30.22,30.16,30.03,10,4,0,9,1,,0.00,1,Fog,202
2013-7-19,90,80,73,76,74,70,100,89,62,30.05,30.01,29.90,10,4,1,15,2,22,0.07,1,Rain-Thunderstorm,214
2013-7-20,91,81,72,74,71,66,97,80,57,29.93,29.90,29.85,10,9,6,28,7,40,0.01,1,Rain-Thunderstorm,228
2013-7-21,88,78,68,74,71,68,100,84,57,29.97,29.93,29.88,10,8,1,9,2,,0.22,3,Rain-Thunderstorm,75
2013-7-22,80,74,69,73,71,69,100,94,74,29.93,29.84,29.78,10,7,2,18,3,22,0.22,5,Rain-Thunderstorm,185
2013-7-23,89,76,66,74,70,66,100,91,61,29.85,29.82,29.74,10,5,0,16,2,30,0.01,3,Fog-Rain-Thunderstorm,216
2013-7-24,79,69,61,66,59,56,84,72,52,30.00,29.92,29.84,10,10,10,10,6,,0.00,3,,24
2013-7-25,78,66,55,59,56,53,97,70,42,30.10,30.06,30.01,10,10,10,9,4,,0.00,2,,57
2013-7-26,80,67,55,64,59,55,100,77,48,30.10,30.06,29.98,10,9,2,9,2,,0.00,0,Fog,204
2013-7-27,75,68,63,67,64,56,100,86,61,29.97,29.92,29.86,10,7,2,13,3,21,0.13,6,Rain,230
2013-7-28,73,64,54,55,51,48,97,63,42,30.07,30.01,29.93,10,10,10,12,5,17,0.00,3,,256
2013-7-29,79,66,54,60,56,54,100,72,45,30.20,30.14,30.08,10,9,5,13,3,,0.00,2,,260
2013-7-30,80,66,55,67,61,56,100,82,48,30.24,30.19,30.13,10,10,4,8,1,,0.00,2,Fog,174
2013-7-31,77,70,64,69,66,63,100,88,69,30.12,30.06,29.96,10,9,2,12,4,,0.01,8,Rain,186